sensor_id;sensor_type;location;lat;lon;timestamp;P1;durP1;ratioP1;P2;durP2;ratioP2
53273;SDS011;39163;52.696;6.758;2022-09-13T00:53:59;17.83;;;11.82;;
53273;SDS011;39163;52.696;6.758;2022-09-13T00:56:51;18.38;;;12.15;;
53273;SDS011;39163;52.696;6.758;2022-09-13T01:02:25;18.70;;;12.63;;
53273;SDS011;39163;52.696;6.758;2022-09-13T01:16:10;15.80;;;10.52;;
53273;SDS011;39163;52.696;6.758;2022-09-13T01:52:55;18.63;;;13.40;;
53273;SDS011;39163;52.696;6.758;2022-09-13T04:50:27;36.03;;;21.55;;
53273;SDS011;39163;52.696;6.758;2022-09-13T04:53:12;28.67;;;19.90;;
53273;SDS011;39163;52.696;6.758;2022-09-13T05:05:03;31.52;;;20.77;;
53273;SDS011;39163;52.696;6.758;2022-09-13T05:11:12;36.55;;;21.35;;
53273;SDS011;39163;52.696;6.758;2022-09-13T05:20:09;37.50;;;22.55;;
53273;SDS011;39163;52.696;6.758;2022-09-13T05:29:12;34.08;;;21.48;;
53273;SDS011;39163;52.696;6.758;2022-09-13T05:31:39;36.95;;;21.55;;
53273;SDS011;39163;52.696;6.758;2022-09-13T05:34:13;30.55;;;21.83;;
53273;SDS011;39163;52.696;6.758;2022-09-13T05:36:42;35.28;;;22.60;;
53273;SDS011;39163;52.696;6.758;2022-09-13T05:39:12;31.63;;;21.98;;
53273;SDS011;39163;52.696;6.758;2022-09-13T05:41:39;34.92;;;22.95;;
53273;SDS011;39163;52.696;6.758;2022-09-13T05:44:05;33.60;;;22.95;;
53273;SDS011;39163;52.696;6.758;2022-09-13T05:46:31;32.80;;;22.20;;
53273;SDS011;39163;52.696;6.758;2022-09-13T05:48:57;34.15;;;22.60;;
53273;SDS011;39163;52.696;6.758;2022-09-13T05:51:25;38.15;;;23.98;;
53273;SDS011;39163;52.696;6.758;2022-09-13T05:53:52;33.63;;;23.58;;
53273;SDS011;39163;52.696;6.758;2022-09-13T05:56:23;35.60;;;23.27;;
53273;SDS011;39163;52.696;6.758;2022-09-13T05:58:51;34.78;;;22.60;;
53273;SDS011;39163;52.696;6.758;2022-09-13T06:01:19;31.15;;;21.17;;
53273;SDS011;39163;52.696;6.758;2022-09-13T06:03:50;28.20;;;20.48;;
53273;SDS011;39163;52.696;6.758;2022-09-13T06:06:17;32.63;;;21.20;;
53273;SDS011;39163;52.696;6.758;2022-09-13T06:08:43;36.38;;;22.52;;
53273;SDS011;39163;52.696;6.758;2022-09-13T06:11:10;35.13;;;23.17;;
53273;SDS011;39163;52.696;6.758;2022-09-13T06:13:37;36.78;;;22.80;;
53273;SDS011;39163;52.696;6.758;2022-09-13T06:16:05;32.25;;;21.92;;
53273;SDS011;39163;52.696;6.758;2022-09-13T06:18:32;40.30;;;23.15;;
53273;SDS011;39163;52.696;6.758;2022-09-13T06:21:17;28.20;;;19.48;;
53273;SDS011;39163;52.696;6.758;2022-09-13T06:23:45;36.10;;;20.70;;
53273;SDS011;39163;52.696;6.758;2022-09-13T06:26:16;33.90;;;21.67;;
53273;SDS011;39163;52.696;6.758;2022-09-13T06:28:47;31.80;;;20.95;;
53273;SDS011;39163;52.696;6.758;2022-09-13T06:31:17;33.17;;;22.25;;
53273;SDS011;39163;52.696;6.758;2022-09-13T06:33:45;32.90;;;21.17;;
53273;SDS011;39163;52.696;6.758;2022-09-13T06:36:12;31.23;;;20.10;;
53273;SDS011;39163;52.696;6.758;2022-09-13T06:38:39;32.50;;;21.92;;
53273;SDS011;39163;52.696;6.758;2022-09-13T06:43:35;28.52;;;18.90;;
53273;SDS011;39163;52.696;6.758;2022-09-13T06:46:12;23.30;;;16.80;;
53273;SDS011;39163;52.696;6.758;2022-09-13T06:48:41;25.40;;;17.00;;
53273;SDS011;39163;52.696;6.758;2022-09-13T06:51:09;21.95;;;15.27;;
53273;SDS011;39163;52.696;6.758;2022-09-13T06:53:37;21.95;;;15.20;;
53273;SDS011;39163;52.696;6.758;2022-09-13T06:56:10;21.90;;;15.60;;
53273;SDS011;39163;52.696;6.758;2022-09-13T06:58:41;21.20;;;13.75;;
53273;SDS011;39163;52.696;6.758;2022-09-13T07:03:43;20.13;;;11.63;;
53273;SDS011;39163;52.696;6.758;2022-09-13T07:06:14;14.82;;;10.15;;
53273;SDS011;39163;52.696;6.758;2022-09-13T07:08:42;13.93;;;9.73;;
53273;SDS011;39163;52.696;6.758;2022-09-13T07:11:10;15.68;;;9.35;;
53273;SDS011;39163;52.696;6.758;2022-09-13T07:13:37;9.90;;;6.93;;
53273;SDS011;39163;52.696;6.758;2022-09-13T07:16:05;9.23;;;6.13;;
53273;SDS011;39163;52.696;6.758;2022-09-13T07:18:32;12.30;;;5.20;;
53273;SDS011;39163;52.696;6.758;2022-09-13T07:21:06;9.95;;;3.38;;
53273;SDS011;39163;52.696;6.758;2022-09-13T07:23:33;6.07;;;2.42;;
53273;SDS011;39163;52.696;6.758;2022-09-13T07:26:00;7.28;;;2.65;;
53273;SDS011;39163;52.696;6.758;2022-09-13T07:28:28;8.75;;;1.58;;
53273;SDS011;39163;52.696;6.758;2022-09-13T07:31:04;6.30;;;1.13;;
53273;SDS011;39163;52.696;6.758;2022-09-13T07:33:31;3.60;;;1.30;;
53273;SDS011;39163;52.696;6.758;2022-09-13T07:35:57;5.07;;;1.63;;
53273;SDS011;39163;52.696;6.758;2022-09-13T07:38:25;4.53;;;1.40;;
53273;SDS011;39163;52.696;6.758;2022-09-13T07:40:54;6.40;;;1.55;;
53273;SDS011;39163;52.696;6.758;2022-09-13T07:43:22;5.20;;;1.35;;
53273;SDS011;39163;52.696;6.758;2022-09-13T07:46:22;5.57;;;1.58;;
53273;SDS011;39163;52.696;6.758;2022-09-13T07:48:45;2.88;;;1.33;;
53273;SDS011;39163;52.696;6.758;2022-09-13T07:51:15;5.53;;;1.35;;
53273;SDS011;39163;52.696;6.758;2022-09-13T07:53:47;6.68;;;1.80;;
53273;SDS011;39163;52.696;6.758;2022-09-13T07:56:15;5.05;;;1.60;;
53273;SDS011;39163;52.696;6.758;2022-09-13T07:58:45;5.82;;;1.65;;
53273;SDS011;39163;52.696;6.758;2022-09-13T08:01:17;3.55;;;1.48;;
53273;SDS011;39163;52.696;6.758;2022-09-13T08:03:55;3.30;;;0.95;;
53273;SDS011;39163;52.696;6.758;2022-09-13T08:06:23;4.28;;;1.50;;
53273;SDS011;39163;52.696;6.758;2022-09-13T08:08:50;3.08;;;1.00;;
53273;SDS011;39163;52.696;6.758;2022-09-13T08:11:17;5.25;;;1.42;;
53273;SDS011;39163;52.696;6.758;2022-09-13T08:13:45;8.90;;;1.00;;
53273;SDS011;39163;52.696;6.758;2022-09-13T08:16:11;3.00;;;0.80;;
53273;SDS011;39163;52.696;6.758;2022-09-13T08:18:41;1.50;;;0.93;;
53273;SDS011;39163;52.696;6.758;2022-09-13T08:21:09;4.57;;;1.00;;
53273;SDS011;39163;52.696;6.758;2022-09-13T08:23:35;4.28;;;0.70;;
53273;SDS011;39163;52.696;6.758;2022-09-13T08:26:01;5.97;;;0.85;;
53273;SDS011;39163;52.696;6.758;2022-09-13T08:28:34;6.90;;;0.77;;
53273;SDS011;39163;52.696;6.758;2022-09-13T08:31:04;7.10;;;0.50;;
53273;SDS011;39163;52.696;6.758;2022-09-13T08:33:35;7.32;;;0.40;;
53273;SDS011;39163;52.696;6.758;2022-09-13T08:36:03;4.63;;;0.60;;
53273;SDS011;39163;52.696;6.758;2022-09-13T08:38:29;6.10;;;0.63;;
53273;SDS011;39163;52.696;6.758;2022-09-13T08:41:01;5.10;;;0.60;;
53273;SDS011;39163;52.696;6.758;2022-09-13T08:43:56;5.22;;;0.43;;
53273;SDS011;39163;52.696;6.758;2022-09-13T08:46:48;3.65;;;0.43;;
53273;SDS011;39163;52.696;6.758;2022-09-13T08:49:15;2.50;;;0.30;;
53273;SDS011;39163;52.696;6.758;2022-09-13T08:51:47;5.32;;;0.20;;
53273;SDS011;39163;52.696;6.758;2022-09-13T08:54:18;6.68;;;0.50;;
53273;SDS011;39163;52.696;6.758;2022-09-13T09:02:33;4.97;;;0.57;;
53273;SDS011;39163;52.696;6.758;2022-09-13T09:10:21;3.42;;;0.20;;
53273;SDS011;39163;52.696;6.758;2022-09-13T09:12:53;6.10;;;0.25;;
53273;SDS011;39163;52.696;6.758;2022-09-13T09:15:25;3.63;;;0.45;;
53273;SDS011;39163;52.696;6.758;2022-09-13T09:17:57;2.28;;;0.17;;
53273;SDS011;39163;52.696;6.758;2022-09-13T09:20:29;3.97;;;0.17;;
53273;SDS011;39163;52.696;6.758;2022-09-13T09:23:02;3.58;;;0.93;;
53273;SDS011;39163;52.696;6.758;2022-09-13T09:25:32;3.05;;;0.20;;
53273;SDS011;39163;52.696;6.758;2022-09-13T09:27:58;1.98;;;0.13;;
53273;SDS011;39163;52.696;6.758;2022-09-13T09:30:28;2.58;;;0.20;;
53273;SDS011;39163;52.696;6.758;2022-09-13T09:33:06;2.25;;;0.10;;
53273;SDS011;39163;52.696;6.758;2022-09-13T09:38:40;5.72;;;0.75;;
53273;SDS011;39163;52.696;6.758;2022-09-13T09:41:24;6.78;;;1.00;;
53273;SDS011;39163;52.696;6.758;2022-09-13T09:46:35;2.83;;;0.28;;
53273;SDS011;39163;52.696;6.758;2022-09-13T09:49:14;5.57;;;0.20;;
53273;SDS011;39163;52.696;6.758;2022-09-13T09:52:07;4.47;;;0.83;;
53273;SDS011;39163;52.696;6.758;2022-09-13T09:54:35;1.85;;;0.10;;
53273;SDS011;39163;52.696;6.758;2022-09-13T09:57:03;5.38;;;0.10;;
53273;SDS011;39163;52.696;6.758;2022-09-13T09:59:32;1.48;;;0.10;;
53273;SDS011;39163;52.696;6.758;2022-09-13T10:01:59;1.15;;;0.20;;
53273;SDS011;39163;52.696;6.758;2022-09-13T10:04:28;1.45;;;0.10;;
53273;SDS011;39163;52.696;6.758;2022-09-13T10:09:58;1.30;;;0.10;;
53273;SDS011;39163;52.696;6.758;2022-09-13T10:12:34;3.72;;;0.57;;
53273;SDS011;39163;52.696;6.758;2022-09-13T10:15:15;3.13;;;0.50;;
53273;SDS011;39163;52.696;6.758;2022-09-13T10:17:59;3.00;;;0.10;;
53273;SDS011;39163;52.696;6.758;2022-09-13T10:20:58;2.60;;;0.10;;
53273;SDS011;39163;52.696;6.758;2022-09-13T10:23:42;2.35;;;0.25;;
53273;SDS011;39163;52.696;6.758;2022-09-13T10:26:10;2.47;;;0.10;;
53273;SDS011;39163;52.696;6.758;2022-09-13T10:28:46;5.20;;;0.10;;
53273;SDS011;39163;52.696;6.758;2022-09-13T10:31:27;1.83;;;0.30;;
53273;SDS011;39163;52.696;6.758;2022-09-13T10:33:57;5.53;;;0.30;;
53273;SDS011;39163;52.696;6.758;2022-09-13T10:36:35;2.17;;;0.00;;
53273;SDS011;39163;52.696;6.758;2022-09-13T10:39:14;2.65;;;0.10;;
53273;SDS011;39163;52.696;6.758;2022-09-13T10:41:46;5.07;;;0.10;;
53273;SDS011;39163;52.696;6.758;2022-09-13T10:44:27;0.70;;;0.00;;
53273;SDS011;39163;52.696;6.758;2022-09-13T10:47:17;1.77;;;0.10;;
53273;SDS011;39163;52.696;6.758;2022-09-13T10:49:47;1.10;;;0.03;;
53273;SDS011;39163;52.696;6.758;2022-09-13T10:57:45;4.03;;;0.47;;
53273;SDS011;39163;52.696;6.758;2022-09-13T11:00:16;1.38;;;0.20;;
53273;SDS011;39163;52.696;6.758;2022-09-13T11:03:06;0.57;;;0.08;;
53273;SDS011;39163;52.696;6.758;2022-09-13T11:06:10;1.95;;;0.45;;
53273;SDS011;39163;52.696;6.758;2022-09-13T11:17:07;2.90;;;0.03;;
53273;SDS011;39163;52.696;6.758;2022-09-13T11:28:26;3.47;;;0.10;;
53273;SDS011;39163;52.696;6.758;2022-09-13T11:42:04;0.52;;;0.03;;
53273;SDS011;39163;52.696;6.758;2022-09-13T11:55:15;2.17;;;0.10;;
53273;SDS011;39163;52.696;6.758;2022-09-13T11:58:04;2.13;;;0.10;;
53273;SDS011;39163;52.696;6.758;2022-09-13T12:00:39;1.73;;;0.10;;
53273;SDS011;39163;52.696;6.758;2022-09-13T12:05:49;4.32;;;0.65;;
53273;SDS011;39163;52.696;6.758;2022-09-13T12:10:55;5.60;;;0.85;;
53273;SDS011;39163;52.696;6.758;2022-09-13T12:13:23;3.30;;;0.10;;
53273;SDS011;39163;52.696;6.758;2022-09-13T12:16:02;2.63;;;0.20;;
53273;SDS011;39163;52.696;6.758;2022-09-13T12:18:46;2.40;;;0.10;;
53273;SDS011;39163;52.696;6.758;2022-09-13T12:21:16;3.20;;;0.00;;
53273;SDS011;39163;52.696;6.758;2022-09-13T12:23:55;1.77;;;0.10;;
53273;SDS011;39163;52.696;6.758;2022-09-13T12:26:30;3.20;;;0.10;;
53273;SDS011;39163;52.696;6.758;2022-09-13T12:29:17;4.40;;;0.30;;
53273;SDS011;39163;52.696;6.758;2022-09-13T12:31:49;3.55;;;0.20;;
53273;SDS011;39163;52.696;6.758;2022-09-13T12:34:29;1.00;;;0.00;;
53273;SDS011;39163;52.696;6.758;2022-09-13T12:42:56;6.68;;;0.10;;
53273;SDS011;39163;52.696;6.758;2022-09-13T12:48:57;4.15;;;0.20;;
53273;SDS011;39163;52.696;6.758;2022-09-13T13:02:37;4.93;;;0.10;;
53273;SDS011;39163;52.696;6.758;2022-09-13T13:05:42;2.92;;;0.20;;
53273;SDS011;39163;52.696;6.758;2022-09-13T13:08:03;2.28;;;0.10;;
53273;SDS011;39163;52.696;6.758;2022-09-13T13:10:41;1.40;;;0.10;;
53273;SDS011;39163;52.696;6.758;2022-09-13T13:13:13;2.78;;;0.25;;
53273;SDS011;39163;52.696;6.758;2022-09-13T13:18:22;7.05;;;0.28;;
53273;SDS011;39163;52.696;6.758;2022-09-13T13:33:56;3.83;;;0.10;;
53273;SDS011;39163;52.696;6.758;2022-09-13T13:36:25;3.55;;;0.13;;
53273;SDS011;39163;52.696;6.758;2022-09-13T13:38:53;3.90;;;0.10;;
53273;SDS011;39163;52.696;6.758;2022-09-13T13:43:59;3.35;;;0.20;;
53273;SDS011;39163;52.696;6.758;2022-09-13T13:46:30;4.00;;;0.30;;
53273;SDS011;39163;52.696;6.758;2022-09-13T13:57:30;2.70;;;0.10;;
53273;SDS011;39163;52.696;6.758;2022-09-13T14:08:46;2.13;;;0.20;;
53273;SDS011;39163;52.696;6.758;2022-09-13T14:17:22;2.42;;;0.10;;
53273;SDS011;39163;52.696;6.758;2022-09-13T17:41:32;4.95;;;0.50;;
53273;SDS011;39163;52.696;6.758;2022-09-13T17:43:58;4.35;;;0.30;;
53273;SDS011;39163;52.696;6.758;2022-09-13T17:46:24;4.82;;;0.68;;
53273;SDS011;39163;52.696;6.758;2022-09-13T17:48:53;5.30;;;0.93;;
53273;SDS011;39163;52.696;6.758;2022-09-13T17:51:21;3.65;;;0.80;;
53273;SDS011;39163;52.696;6.758;2022-09-13T17:53:58;5.43;;;0.25;;
53273;SDS011;39163;52.696;6.758;2022-09-13T17:56:32;2.83;;;0.20;;
53273;SDS011;39163;52.696;6.758;2022-09-13T17:59:15;5.70;;;0.52;;
53273;SDS011;39163;52.696;6.758;2022-09-13T18:01:46;5.07;;;0.55;;
53273;SDS011;39163;52.696;6.758;2022-09-13T18:04:14;2.97;;;0.30;;
53273;SDS011;39163;52.696;6.758;2022-09-13T18:06:41;4.00;;;0.28;;
53273;SDS011;39163;52.696;6.758;2022-09-13T18:09:10;6.80;;;0.47;;
53273;SDS011;39163;52.696;6.758;2022-09-13T18:11:38;5.30;;;0.30;;
53273;SDS011;39163;52.696;6.758;2022-09-13T18:14:04;7.47;;;0.70;;
53273;SDS011;39163;52.696;6.758;2022-09-13T18:16:31;8.15;;;1.05;;
53273;SDS011;39163;52.696;6.758;2022-09-13T18:18:57;4.75;;;0.50;;
53273;SDS011;39163;52.696;6.758;2022-09-13T18:21:24;7.80;;;0.43;;
53273;SDS011;39163;52.696;6.758;2022-09-13T18:23:51;5.70;;;0.40;;
53273;SDS011;39163;52.696;6.758;2022-09-13T18:26:22;6.43;;;0.28;;
53273;SDS011;39163;52.696;6.758;2022-09-13T18:28:56;8.63;;;0.68;;
53273;SDS011;39163;52.696;6.758;2022-09-13T18:31:39;4.95;;;0.20;;
53273;SDS011;39163;52.696;6.758;2022-09-13T18:34:06;6.15;;;0.50;;
53273;SDS011;39163;52.696;6.758;2022-09-13T18:36:41;6.67;;;0.40;;
53273;SDS011;39163;52.696;6.758;2022-09-13T18:39:08;7.32;;;0.40;;
53273;SDS011;39163;52.696;6.758;2022-09-13T18:41:48;4.57;;;0.35;;
53273;SDS011;39163;52.696;6.758;2022-09-13T18:44:15;8.93;;;0.98;;
53273;SDS011;39163;52.696;6.758;2022-09-13T18:46:42;2.70;;;0.20;;
53273;SDS011;39163;52.696;6.758;2022-09-13T18:49:08;6.45;;;0.60;;
53273;SDS011;39163;52.696;6.758;2022-09-13T18:51:36;4.97;;;0.30;;
53273;SDS011;39163;52.696;6.758;2022-09-13T18:54:09;7.07;;;0.57;;
53273;SDS011;39163;52.696;6.758;2022-09-13T18:56:38;5.40;;;0.20;;
53273;SDS011;39163;52.696;6.758;2022-09-13T18:59:05;6.28;;;0.30;;
53273;SDS011;39163;52.696;6.758;2022-09-13T19:01:33;7.90;;;0.30;;
53273;SDS011;39163;52.696;6.758;2022-09-13T19:04:15;3.95;;;0.50;;
53273;SDS011;39163;52.696;6.758;2022-09-13T19:09:20;6.18;;;0.30;;
53273;SDS011;39163;52.696;6.758;2022-09-13T19:12:01;4.55;;;0.30;;
53273;SDS011;39163;52.696;6.758;2022-09-13T19:14:33;3.47;;;0.20;;
53273;SDS011;39163;52.696;6.758;2022-09-13T19:17:02;2.97;;;0.40;;
53273;SDS011;39163;52.696;6.758;2022-09-13T19:19:48;5.28;;;0.20;;
53273;SDS011;39163;52.696;6.758;2022-09-13T19:22:49;2.63;;;0.20;;
53273;SDS011;39163;52.696;6.758;2022-09-13T19:25:36;4.47;;;0.52;;
53273;SDS011;39163;52.696;6.758;2022-09-13T19:28:36;4.55;;;0.32;;
53273;SDS011;39163;52.696;6.758;2022-09-13T19:34:42;8.35;;;0.60;;
53273;SDS011;39163;52.696;6.758;2022-09-13T19:37:13;4.18;;;0.45;;
53273;SDS011;39163;52.696;6.758;2022-09-13T19:39:43;4.22;;;0.40;;
53273;SDS011;39163;52.696;6.758;2022-09-13T19:42:20;3.35;;;0.30;;
53273;SDS011;39163;52.696;6.758;2022-09-13T19:45:23;3.17;;;0.20;;
53273;SDS011;39163;52.696;6.758;2022-09-13T19:48:01;15.07;;;0.93;;
53273;SDS011;39163;52.696;6.758;2022-09-13T19:50:53;4.40;;;0.50;;
53273;SDS011;39163;52.696;6.758;2022-09-13T19:53:45;3.50;;;0.20;;
53273;SDS011;39163;52.696;6.758;2022-09-13T19:56:18;4.07;;;0.32;;
53273;SDS011;39163;52.696;6.758;2022-09-13T19:58:46;8.93;;;0.55;;
53273;SDS011;39163;52.696;6.758;2022-09-13T20:01:14;3.70;;;0.30;;
53273;SDS011;39163;52.696;6.758;2022-09-13T20:03:48;7.18;;;0.30;;
53273;SDS011;39163;52.696;6.758;2022-09-13T20:09:30;5.13;;;0.20;;
53273;SDS011;39163;52.696;6.758;2022-09-13T20:11:59;6.07;;;0.28;;
53273;SDS011;39163;52.696;6.758;2022-09-13T20:14:25;5.10;;;0.20;;
53273;SDS011;39163;52.696;6.758;2022-09-13T20:17:34;5.47;;;0.30;;
53273;SDS011;39163;52.696;6.758;2022-09-13T20:20:08;6.10;;;0.40;;
53273;SDS011;39163;52.696;6.758;2022-09-13T20:22:45;3.45;;;0.55;;
53273;SDS011;39163;52.696;6.758;2022-09-13T20:25:21;5.20;;;0.20;;
53273;SDS011;39163;52.696;6.758;2022-09-13T20:28:03;4.82;;;0.30;;
53273;SDS011;39163;52.696;6.758;2022-09-13T20:30:38;3.30;;;0.22;;
53273;SDS011;39163;52.696;6.758;2022-09-13T20:39:15;5.72;;;0.32;;
53273;SDS011;39163;52.696;6.758;2022-09-13T20:42:17;4.00;;;0.22;;
53273;SDS011;39163;52.696;6.758;2022-09-13T20:44:54;6.68;;;0.82;;
53273;SDS011;39163;52.696;6.758;2022-09-13T20:51:20;3.13;;;0.22;;
53273;SDS011;39163;52.696;6.758;2022-09-13T20:53:57;3.83;;;0.20;;
53273;SDS011;39163;52.696;6.758;2022-09-13T20:56:24;8.75;;;0.52;;
53273;SDS011;39163;52.696;6.758;2022-09-13T20:59:01;5.13;;;0.20;;
53273;SDS011;39163;52.696;6.758;2022-09-13T21:05:39;2.38;;;0.40;;
53273;SDS011;39163;52.696;6.758;2022-09-13T21:08:13;5.32;;;0.40;;
53273;SDS011;39163;52.696;6.758;2022-09-13T21:10:59;6.05;;;0.30;;
53273;SDS011;39163;52.696;6.758;2022-09-13T21:13:35;4.97;;;0.38;;
53273;SDS011;39163;52.696;6.758;2022-09-13T21:16:15;3.28;;;0.40;;
53273;SDS011;39163;52.696;6.758;2022-09-13T21:19:43;3.15;;;0.30;;
53273;SDS011;39163;52.696;6.758;2022-09-13T21:22:14;5.90;;;0.40;;
53273;SDS011;39163;52.696;6.758;2022-09-13T21:27:52;5.93;;;0.20;;
53273;SDS011;39163;52.696;6.758;2022-09-13T21:30:18;6.78;;;0.30;;
53273;SDS011;39163;52.696;6.758;2022-09-13T21:32:43;5.18;;;0.35;;
53273;SDS011;39163;52.696;6.758;2022-09-13T21:35:12;4.28;;;0.40;;
53273;SDS011;39163;52.696;6.758;2022-09-13T21:37:38;4.10;;;0.30;;
53273;SDS011;39163;52.696;6.758;2022-09-13T21:40:04;3.33;;;0.50;;
53273;SDS011;39163;52.696;6.758;2022-09-13T21:42:30;4.07;;;0.30;;
53273;SDS011;39163;52.696;6.758;2022-09-13T21:44:59;6.57;;;0.65;;
53273;SDS011;39163;52.696;6.758;2022-09-13T21:47:27;6.53;;;0.75;;
53273;SDS011;39163;52.696;6.758;2022-09-13T21:49:55;1.85;;;0.30;;
53273;SDS011;39163;52.696;6.758;2022-09-13T21:52:21;5.70;;;0.70;;
53273;SDS011;39163;52.696;6.758;2022-09-13T21:54:47;3.40;;;0.40;;
53273;SDS011;39163;52.696;6.758;2022-09-13T21:57:12;4.93;;;0.73;;
53273;SDS011;39163;52.696;6.758;2022-09-13T21:59:38;4.40;;;0.50;;
53273;SDS011;39163;52.696;6.758;2022-09-13T22:02:07;6.05;;;0.50;;
53273;SDS011;39163;52.696;6.758;2022-09-13T22:04:35;4.50;;;1.05;;
53273;SDS011;39163;52.696;6.758;2022-09-13T22:07:01;4.60;;;0.73;;
53273;SDS011;39163;52.696;6.758;2022-09-13T22:09:27;5.30;;;0.40;;
53273;SDS011;39163;52.696;6.758;2022-09-13T22:11:55;5.40;;;0.43;;
53273;SDS011;39163;52.696;6.758;2022-09-13T22:14:21;3.30;;;0.38;;
53273;SDS011;39163;52.696;6.758;2022-09-13T22:16:47;5.80;;;0.60;;
53273;SDS011;39163;52.696;6.758;2022-09-13T22:19:19;2.72;;;0.52;;
53273;SDS011;39163;52.696;6.758;2022-09-13T22:21:48;6.70;;;0.50;;
53273;SDS011;39163;52.696;6.758;2022-09-13T22:24:17;4.00;;;0.50;;
53273;SDS011;39163;52.696;6.758;2022-09-13T22:26:45;5.30;;;0.82;;
53273;SDS011;39163;52.696;6.758;2022-09-13T22:29:17;7.10;;;0.82;;
53273;SDS011;39163;52.696;6.758;2022-09-13T22:31:46;4.35;;;1.02;;
53273;SDS011;39163;52.696;6.758;2022-09-13T22:34:30;2.40;;;0.75;;
53273;SDS011;39163;52.696;6.758;2022-09-13T22:38:13;4.07;;;0.55;;
53273;SDS011;39163;52.696;6.758;2022-09-13T22:40:53;6.28;;;0.60;;
53273;SDS011;39163;52.696;6.758;2022-09-13T22:43:23;3.92;;;0.70;;
53273;SDS011;39163;52.696;6.758;2022-09-13T22:45:52;4.57;;;0.77;;
53273;SDS011;39163;52.696;6.758;2022-09-13T22:48:25;7.38;;;1.40;;
53273;SDS011;39163;52.696;6.758;2022-09-13T22:50:54;4.85;;;0.68;;
53273;SDS011;39163;52.696;6.758;2022-09-13T22:56:12;4.70;;;0.60;;
53273;SDS011;39163;52.696;6.758;2022-09-13T22:58:45;4.00;;;0.60;;
53273;SDS011;39163;52.696;6.758;2022-09-13T23:01:12;6.40;;;0.70;;
53273;SDS011;39163;52.696;6.758;2022-09-13T23:07:09;5.60;;;0.77;;
53273;SDS011;39163;52.696;6.758;2022-09-13T23:10:35;5.13;;;0.90;;
53273;SDS011;39163;52.696;6.758;2022-09-13T23:13:14;12.10;;;1.25;;
53273;SDS011;39163;52.696;6.758;2022-09-13T23:15:53;9.15;;;0.80;;
53273;SDS011;39163;52.696;6.758;2022-09-13T23:18:37;5.97;;;0.90;;
53273;SDS011;39163;52.696;6.758;2022-09-13T23:21:11;6.30;;;0.60;;
53273;SDS011;39163;52.696;6.758;2022-09-13T23:26:59;6.68;;;0.90;;
53273;SDS011;39163;52.696;6.758;2022-09-13T23:30:05;5.45;;;1.05;;
53273;SDS011;39163;52.696;6.758;2022-09-13T23:32:31;6.80;;;1.05;;
53273;SDS011;39163;52.696;6.758;2022-09-13T23:35:00;8.73;;;1.20;;
53273;SDS011;39163;52.696;6.758;2022-09-13T23:37:37;4.18;;;1.45;;
53273;SDS011;39163;52.696;6.758;2022-09-13T23:43:47;7.43;;;1.88;;
53273;SDS011;39163;52.696;6.758;2022-09-13T23:46:16;4.18;;;0.95;;
53273;SDS011;39163;52.696;6.758;2022-09-13T23:48:48;10.63;;;2.45;;
53273;SDS011;39163;52.696;6.758;2022-09-13T23:51:20;8.02;;;0.93;;
53273;SDS011;39163;52.696;6.758;2022-09-13T23:53:51;5.57;;;1.17;;
53273;SDS011;39163;52.696;6.758;2022-09-13T23:56:24;7.55;;;1.35;;
53273;SDS011;39163;52.696;6.758;2022-09-13T23:58:55;4.13;;;1.20;;
